Time;durP1;ratioP1;P1;durP2;ratioP2;P2;SDS_P1;SDS_P2;PMS_P1;PMS_P2;Temp;Humidity;BMP_temperature;BMP_pressure;BME280_temperature;BME280_humidity;BME280_pressure;Samples;Min_cycle;Max_cycle;Signal;HPM_P1;HPM_P2
2022/09/26 00:00:40;;;;;;;;;37.20;32.80;;;;;15.17;60.91;98089.94;6183100;28;97098;-62
2022/09/26 00:03:46;;;;;;;;;37.60;32.00;;;;;15.17;60.99;98089.94;6179231;28;96719;-66
2022/09/26 00:06:50;;;;;;;;;37.40;32.00;;;;;15.12;60.65;98089.94;6185482;28;97574;-66
2022/09/26 00:09:54;;;;;;;;;36.00;32.00;;;;;15.19;60.65;98081.53;6187163;28;96382;-63
2022/09/26 00:13:00;;;;;;;;;36.20;31.60;;;;;15.22;59.98;98075.56;6185762;28;97029;-66
2022/09/26 00:16:04;;;;;;;;;34.60;31.60;;;;;15.22;59.80;98072.84;6184939;28;96880;-61
2022/09/26 00:19:08;;;;;;;;;37.80;32.60;;;;;15.19;59.77;98067.97;6188138;28;96355;-62
2022/09/26 00:22:12;;;;;;;;;34.60;30.40;;;;;15.20;59.91;98068.78;6187373;28;96285;-62
2022/09/26 00:25:15;;;;;;;;;36.60;33.00;;;;;15.21;60.46;98065.78;6184581;28;96337;-70
2022/09/26 00:28:20;;;;;;;;;38.25;33.00;;;;;15.25;61.06;98066.06;6187004;28;96610;-65
2022/09/26 00:31:26;;;;;;;;;34.25;32.00;;;;;15.29;60.48;98062.53;6187389;28;96585;-66
2022/09/26 00:34:30;;;;;;;;;41.00;33.25;;;;;15.31;60.17;98054.91;6186876;28;96950;-71
2022/09/26 00:37:33;;;;;;;;;35.00;32.00;;;;;15.07;60.11;98005.78;6183560;28;97708;-66
2022/09/26 00:40:36;;;;;;;;;37.80;32.20;;;;;15.36;60.33;98044.06;6181500;28;96895;-62
2022/09/26 00:43:43;;;;;;;;;38.00;33.00;;;;;15.36;60.27;98038.63;6183383;28;96614;-63
2022/09/26 00:46:48;;;;;;;;;37.75;33.00;;;;;15.40;60.50;98038.88;6162065;28;96763;-60
2022/09/26 00:49:58;;;;;;;;;35.00;32.00;;;;;15.39;60.04;98029.94;6187515;28;96878;-64
2022/09/26 00:53:07;;;;;;;;;32.60;30.00;;;;;15.40;59.78;98038.88;6167936;28;98519;-67
2022/09/26 00:56:15;;;;;;;;;35.20;32.00;;;;;15.38;59.66;98030.22;6187581;28;96478;-61
2022/09/26 00:59:24;;;;;;;;;35.60;32.00;;;;;15.38;59.68;98035.66;6173516;28;96467;-72
2022/09/26 01:02:29;;;;;;;;;33.00;31.00;;;;;15.35;59.93;98026.13;6184990;28;96465;-62
2022/09/26 01:05:34;;;;;;;;;33.25;30.00;;;;;15.33;60.55;98041.09;6187500;28;97013;-67
2022/09/26 01:08:42;;;;;;;;;38.00;33.00;;;;;15.34;60.80;98040.00;6181521;28;96824;-67
2022/09/26 01:11:46;;;;;;;;;36.25;32.25;;;;;15.33;60.47;98028.31;6182539;28;96673;-67
2022/09/26 01:14:58;;;;;;;;;34.00;31.50;;;;;15.34;60.17;98023.72;6197679;28;96461;-67
2022/09/26 01:18:01;;;;;;;;;33.00;30.20;;;;;15.34;60.05;98029.94;6182320;28;97398;-70
2022/09/26 01:21:22;;;;;;;;;34.60;31.60;;;;;15.32;61.14;98018.53;6180563;28;97333;-61
2022/09/26 01:24:47;;;;;;;;;38.00;32.00;;;;;15.33;60.73;98020.16;6184377;28;96473;-63
2022/09/26 01:28:04;;;;;;;;;38.00;32.50;;;;;15.30;60.35;98019.88;6177908;28;96321;-67
2022/09/26 01:31:16;;;;;;;;;35.40;31.40;;;;;15.26;60.59;98019.63;6177023;28;96843;-62
2022/09/26 01:34:26;;;;;;;;;38.00;33.00;;;;;15.23;61.09;98020.19;6184564;28;96958;-63
2022/09/26 01:37:40;;;;;;;;;36.40;32.00;;;;;15.24;61.21;98013.66;6184615;28;96281;-71
2022/09/26 01:40:53;;;;;;;;;34.00;31.50;;;;;15.20;60.34;98009.06;6181885;28;96201;-64
2022/09/26 01:44:07;;;;;;;;;34.00;31.60;;;;;15.16;60.10;98001.44;6184324;28;96225;-63
2022/09/26 01:47:16;;;;;;;;;35.40;30.80;;;;;15.15;60.03;98002.53;6183653;28;96597;-70
2022/09/26 01:50:27;;;;;;;;;40.40;33.00;;;;;15.15;60.14;97997.09;6185613;28;97539;-62
2022/09/26 01:53:40;;;;;;;;;37.25;32.00;;;;;15.11;60.50;98001.44;6174052;28;96369;-66
2022/09/26 01:56:47;;;;;;;;;40.00;34.00;;;;;15.12;61.50;98003.06;6185400;28;96360;-62
2022/09/26 01:59:56;;;;;;;;;35.00;31.40;;;;;15.11;60.75;97993.28;6173564;28;96689;-60
2022/09/26 02:03:05;;;;;;;;;38.00;33.00;;;;;15.11;60.17;97989.75;6183480;28;96619;-71
2022/09/26 02:06:13;;;;;;;;;37.50;33.00;;;;;15.11;60.37;97987.88;6166214;28;98436;-65
2022/09/26 02:09:19;;;;;;;;;33.60;31.00;;;;;15.11;60.28;97992.47;6182016;28;96505;-62
2022/09/26 02:12:30;;;;;;;;;37.40;32.20;;;;;15.10;60.41;97983.50;6187391;28;96940;-61
2022/09/26 02:15:37;;;;;;;;;38.00;32.00;;;;;15.15;60.39;97983.50;6185586;28;96255;-61
2022/09/26 02:18:50;;;;;;;;;37.60;32.00;;;;;15.19;60.36;97978.38;6181677;28;96247;-70
2022/09/26 02:21:55;;;;;;;;;38.50;32.00;;;;;15.19;60.13;97978.38;6173110;28;96922;-71
2022/09/26 02:24:59;;;;;;;;;41.40;35.00;;;;;15.28;60.75;97984.06;6180071;28;96807;-60
2022/09/26 02:28:03;;;;;;;;;39.67;33.00;;;;;15.32;60.90;97974.28;6182096;28;97318;-66
2022/09/26 02:31:08;;;;;;;;;38.00;33.00;;;;;15.33;61.04;97975.91;6159376;28;96788;-60
2022/09/26 02:34:14;;;;;;;;;38.00;32.40;;;;;15.35;60.59;97985.38;6183934;28;96907;-63
2022/09/26 02:37:20;;;;;;;;;38.00;33.00;;;;;15.40;60.45;97988.09;6181258;28;96289;-63
2022/09/26 02:40:32;;;;;;;;;35.00;31.50;;;;;15.46;60.81;97987.00;6184962;28;96769;-62
2022/09/26 02:43:56;;;;;;;;;39.20;33.00;;;;;15.52;60.97;97982.41;6184000;28;96296;-62
2022/09/26 02:47:44;;;;;;;;;37.67;32.00;;;;;15.57;61.11;97972.34;6185593;28;96375;-66
2022/09/26 02:51:05;;;;;;;;;39.20;33.60;;;;;15.62;61.23;97968.81;6185333;28;96494;-70
2022/09/26 02:54:21;;;;;;;;;38.60;34.20;;;;;15.69;61.25;97965.78;6181622;28;96242;-66
2022/09/26 02:57:38;;;;;;;;;40.40;34.00;;;;;15.75;61.12;97959.25;6160937;28;97527;-63
2022/09/26 03:00:53;;;;;;;;;41.40;35.00;;;;;15.79;61.50;97954.88;6201701;28;96819;-65
2022/09/26 03:04:05;;;;;;;;;41.00;33.00;;;;;15.84;61.21;97957.56;6188709;28;96779;-60
2022/09/26 03:07:18;;;;;;;;;44.00;35.00;;;;;15.88;61.37;97947.78;6182828;28;96360;-61
2022/09/26 03:10:24;;;;;;;;;37.00;32.67;;;;;15.94;61.37;97949.38;6185831;28;97249;-60
2022/09/26 03:13:33;;;;;;;;;45.50;36.00;;;;;15.97;61.48;97951.56;6187667;28;96578;-71
2022/09/26 03:16:41;;;;;;;;;38.67;33.00;;;;;15.86;61.42;97918.16;6184598;28;96416;-68
2022/09/26 03:19:48;;;;;;;;;38.40;32.00;;;;;15.96;61.50;97930.91;6178749;28;96514;-66
2022/09/26 03:22:54;;;;;;;;;41.60;34.40;;;;;15.88;61.95;97931.50;6189057;28;96466;-66
2022/09/26 03:26:01;;;;;;;;;41.00;34.00;;;;;15.79;62.38;97925.78;6203910;28;96765;-66
2022/09/26 03:29:06;;;;;;;;;43.60;36.00;;;;;15.83;62.07;97926.06;6204045;28;96489;-60
2022/09/26 03:32:11;;;;;;;;;38.00;33.00;;;;;15.82;61.70;97917.09;6182059;28;96741;-65
2022/09/26 03:35:15;;;;;;;;;38.50;33.00;;;;;15.83;61.72;97907.84;6198297;28;96578;-66
2022/09/26 03:38:22;;;;;;;;;35.00;32.00;;;;;15.79;61.19;97905.97;6184774;28;96407;-66
2022/09/26 03:41:36;;;;;;;;;39.00;33.00;;;;;15.76;61.00;97901.91;6191295;28;97339;-61
2022/09/26 03:44:44;;;;;;;;;41.60;35.00;;;;;15.74;61.05;97900.53;6212237;28;96642;-63
2022/09/26 03:47:48;;;;;;;;;40.80;33.60;;;;;15.71;61.40;97909.25;6181085;28;96993;-70
2022/09/26 03:50:51;;;;;;;;;39.00;33.75;;;;;15.69;61.07;97898.66;6183781;28;97997;-63
2022/09/26 03:53:56;;;;;;;;;37.60;33.60;;;;;15.65;61.19;97911.19;6182519;28;96328;-61
2022/09/26 03:57:01;;;;;;;;;42.40;34.60;;;;;15.66;61.33;97910.09;6186442;28;97087;-67
2022/09/26 04:00:06;;;;;;;;;40.80;34.60;;;;;15.64;61.65;97904.13;6184477;28;96876;-64
2022/09/26 04:03:20;;;;;;;;;38.67;33.00;;;;;15.61;61.88;97912.84;6178565;28;97239;-70
2022/09/26 04:06:24;;;;;;;;;41.00;35.00;;;;;15.56;61.41;97913.66;6189017;28;96510;-64
2022/09/26 04:09:30;;;;;;;;;40.00;33.20;;;;;15.56;61.53;97921.81;6186446;28;96193;-69
2022/09/26 04:12:34;;;;;;;;;39.60;33.00;;;;;15.59;61.25;97915.81;6178658;28;96407;-65
2022/09/26 04:15:38;;;;;;;;;40.60;34.60;;;;;15.59;61.38;97909.56;6186371;28;98136;-68
2022/09/26 04:18:47;;;;;;;;;40.00;35.00;;;;;15.65;61.35;97910.38;6186399;28;96277;-65
2022/09/26 04:21:51;;;;;;;;;41.00;33.00;;;;;15.67;61.42;97913.63;6184821;28;96583;-67
2022/09/26 04:24:57;;;;;;;;;41.20;34.80;;;;;15.70;61.51;97915.78;6185750;28;96223;-62
2022/09/26 04:28:01;;;;;;;;;42.00;36.00;;;;;15.70;61.47;97913.88;6186114;28;97775;-66
2022/09/26 04:31:06;;;;;;;;;41.80;34.80;;;;;15.72;61.51;97916.31;6185458;28;96930;-63
2022/09/26 04:34:11;;;;;;;;;41.00;33.80;;;;;15.72;61.55;97909.00;6188729;28;96410;-61
2022/09/26 04:37:15;;;;;;;;;43.67;36.67;;;;;15.78;61.45;97909.78;6184109;28;97457;-64
2022/09/26 04:40:20;;;;;;;;;43.20;35.80;;;;;15.80;61.49;97904.88;6181015;28;96482;-62
2022/09/26 04:43:41;;;;;;;;;48.00;38.00;;;;;15.82;61.70;97897.25;6202598;28;96584;-70
2022/09/26 04:46:47;;;;;;;;;46.40;38.00;;;;;15.86;61.61;97904.56;6183162;28;98453;-61
2022/09/26 04:49:52;;;;;;;;;49.20;40.80;;;;;15.80;61.81;97897.53;6165134;28;96754;-68
2022/09/26 04:52:56;;;;;;;;;49.80;41.00;;;;;15.83;61.70;97888.81;6184858;28;96906;-59
2022/09/26 04:56:01;;;;;;;;;48.25;39.25;;;;;15.90;62.08;97885.78;6186744;28;96657;-61
2022/09/26 04:59:06;;;;;;;;;50.25;40.00;;;;;15.93;61.82;97885.25;6186066;28;96119;-69
2022/09/26 05:02:39;;;;;;;;;48.00;39.00;;;;;15.84;61.99;97881.47;6172748;28;96267;-64
2022/09/26 05:05:46;;;;;;;;;45.80;37.80;;;;;15.89;61.90;97884.97;6169990;28;96439;-62
2022/09/26 05:08:49;;;;;;;;;47.80;39.00;;;;;15.93;61.86;97879.81;6186782;28;96873;-69
2022/09/26 05:12:00;;;;;;;;;47.50;37.00;;;;;15.98;61.93;97874.31;6183490;28;96391;-69
2022/09/26 05:15:07;;;;;;;;;45.25;38.00;;;;;16.03;62.01;97872.38;6175923;28;96967;-63
2022/09/26 05:18:11;;;;;;;;;45.25;37.50;;;;;16.11;61.87;97871.00;6191675;28;96454;-65
2022/09/26 05:21:14;;;;;;;;;47.00;38.00;;;;;16.12;61.89;97863.66;6175640;28;97455;-64
2022/09/26 05:27:41;;;;;;;;;49.40;40.00;;;;;16.26;61.81;97867.38;6188287;28;97581;-64
2022/09/26 05:30:44;;;;;;;;;49.20;39.20;;;;;16.31;61.82;97859.16;6186232;28;96383;-66
2022/09/26 05:33:49;;;;;;;;;51.00;41.00;;;;;16.29;61.92;97873.03;6186429;28;97574;-64
2022/09/26 05:36:52;;;;;;;;;49.60;40.00;;;;;16.30;62.02;97880.13;6186224;28;96404;-60
2022/09/26 05:43:24;;;;;;;;;48.00;39.00;;;;;16.38;62.16;97874.06;6199937;28;96994;-59
2022/09/26 05:46:30;;;;;;;;;46.80;38.40;;;;;16.44;62.14;97877.56;6196205;28;96446;-69
2022/09/26 05:49:40;;;;;;;;;47.00;38.40;;;;;16.49;62.25;97866.63;6169050;28;97013;-69
2022/09/26 05:52:49;;;;;;;;;47.25;38.25;;;;;16.57;62.36;97868.75;6185953;28;97082;-69
2022/09/26 05:55:58;;;;;;;;;47.00;39.00;;;;;16.67;62.47;97870.59;6185054;28;96372;-62
2022/09/26 05:59:22;;;;;;;;;47.60;39.00;;;;;16.71;62.23;97867.00;6186217;28;96498;-71
2022/09/26 06:02:55;;;;;;;;;46.40;37.40;;;;;16.83;62.04;97872.91;6182750;28;96352;-62
2022/09/26 06:06:10;;;;;;;;;45.00;36.00;;;;;16.85;61.83;97870.72;6182739;28;96904;-70
2022/09/26 06:09:14;;;;;;;;;45.20;36.80;;;;;16.81;61.52;97877.03;6171745;28;96688;-62
2022/09/26 06:12:36;;;;;;;;;47.33;36.33;;;;;16.74;61.52;97866.47;6207033;28;96468;-64
2022/09/26 06:15:44;;;;;;;;;44.40;36.00;;;;;16.77;61.47;97867.78;6185504;28;96955;-61
2022/09/26 06:18:50;;;;;;;;;46.00;38.40;;;;;16.78;61.47;97863.97;6184569;28;98293;-69
2022/09/26 06:21:54;;;;;;;;;49.00;39.20;;;;;16.84;61.53;97866.38;6186111;28;96580;-62
2022/09/26 06:24:57;;;;;;;;;45.25;36.50;;;;;16.95;61.38;97869.00;6185627;28;96366;-59
2022/09/26 06:28:01;;;;;;;;;46.80;39.00;;;;;17.02;61.63;97856.66;6185416;28;96908;-63
2022/09/26 06:31:10;;;;;;;;;46.40;38.00;;;;;17.09;61.56;97861.75;6180114;28;98125;-62
2022/09/26 06:34:32;;;;;;;;;47.00;39.40;;;;;17.08;61.43;97871.03;6184747;28;96779;-62
2022/09/26 06:37:44;;;;;;;;;48.50;38.25;;;;;17.13;61.51;97863.63;6183797;28;96324;-62
2022/09/26 06:40:48;;;;;;;;;45.50;38.00;;;;;17.19;61.23;97862.47;6184656;28;96620;-60
2022/09/26 06:43:52;;;;;;;;;45.50;37.75;;;;;17.17;61.28;97840.16;6184223;28;97153;-63
2022/09/26 06:47:28;;;;;;;;;49.00;40.00;;;;;17.39;61.07;97863.34;6168608;28;96626;-70
2022/09/26 06:50:59;;;;;;;;;48.50;38.00;;;;;17.52;61.17;97852.53;6143451;28;97548;-70
2022/09/26 06:54:05;;;;;;;;;44.60;38.00;;;;;17.66;60.83;97855.41;6185380;28;96402;-60
2022/09/26 06:57:08;;;;;;;;;49.00;39.00;;;;;17.84;60.54;97859.25;6186632;28;96722;-61
2022/09/26 07:00:17;;;;;;;;;47.00;37.80;;;;;18.01;60.26;97865.81;6182946;28;96460;-64
2022/09/26 07:03:36;;;;;;;;;46.00;38.00;;;;;18.22;59.63;97855.44;6183979;28;96347;-60
2022/09/26 07:07:09;;;;;;;;;47.00;39.00;;;;;18.44;58.82;97863.00;6185466;28;96480;-63
2022/09/26 07:10:13;;;;;;;;;48.00;39.00;;;;;18.52;58.17;97851.41;6184146;28;96526;-63
2022/09/26 07:13:24;;;;;;;;;49.00;40.00;;;;;18.70;58.08;97852.50;6184910;28;96394;-60
2022/09/26 07:16:29;;;;;;;;;47.50;38.00;;;;;18.77;57.71;97845.53;6184900;28;96192;-64
2022/09/26 07:19:54;;;;;;;;;47.00;39.00;;;;;18.83;57.19;97851.72;6181630;28;96536;-62
2022/09/26 07:23:33;;;;;;;;;49.80;40.00;;;;;18.91;56.93;97854.56;6178491;28;98249;-69
2022/09/26 07:26:37;;;;;;;;;49.00;40.00;;;;;18.98;57.06;97857.72;6187236;28;96415;-68
2022/09/26 07:29:40;;;;;;;;;47.00;39.00;;;;;19.06;56.86;97860.88;6189462;28;96349;-70
2022/09/26 07:32:46;;;;;;;;;49.00;39.50;;;;;19.13;57.16;97872.22;6190273;28;96377;-65
2022/09/26 07:36:09;;;;;;;;;48.80;39.40;;;;;19.18;56.39;97867.47;6182756;28;96165;-64
2022/09/26 07:39:13;;;;;;;;;47.40;38.40;;;;;19.19;56.83;97866.38;6188856;28;96522;-70
2022/09/26 07:42:17;;;;;;;;;45.00;36.20;;;;;19.22;56.10;97856.72;6188639;28;96355;-62
2022/09/26 07:50:10;;;;;;;;;45.00;37.60;;;;;19.26;56.47;97855.00;6189858;28;96288;-65
2022/09/26 07:52:13;;;;;;;;;40.60;35.00;;;;;19.43;56.64;97852.50;6189885;28;96350;-69
2022/09/26 07:55:32;;;;;;;;;45.00;36.67;;;;;19.49;56.27;97854.06;6188761;28;97281;-60
2022/09/26 07:58:38;;;;;;;;;44.80;37.00;;;;;19.50;56.69;97860.34;6189736;28;96305;-59
2022/09/26 08:02:01;;;;;;;;;44.20;36.00;;;;;19.51;55.91;97854.53;6182769;28;96292;-63
2022/09/26 08:05:18;;;;;;;;;42.75;35.25;;;;;19.47;56.68;97853.53;6188693;28;96487;-69
2022/09/26 08:08:24;;;;;;;;;44.60;35.80;;;;;19.40;56.15;97844.91;6189356;28;96436;-70
2022/09/26 08:11:34;;;;;;;;;41.00;35.50;;;;;19.40;56.79;97848.44;6189733;28;96407;-68
2022/09/26 08:15:05;;;;;;;;;43.80;35.80;;;;;19.48;56.61;97854.34;6183219;28;96913;-64
2022/09/26 08:18:20;;;;;;;;;43.80;36.00;;;;;19.40;56.28;97851.16;6181592;28;96370;-71
2022/09/26 08:21:24;;;;;;;;;45.00;37.00;;;;;19.36;56.70;97852.91;6179360;28;96522;-69
2022/09/26 08:24:32;;;;;;;;;46.00;38.00;;;;;19.30;56.77;97851.38;6189173;28;97030;-62
2022/09/26 08:27:58;;;;;;;;;44.50;36.50;;;;;19.27;56.68;97857.44;6183097;28;97064;-65
2022/09/26 08:31:04;;;;;;;;;45.00;37.00;;;;;19.21;56.97;97858.66;6178547;28;96405;-65
2022/09/26 08:34:08;;;;;;;;;43.00;36.00;;;;;19.12;57.27;97857.75;6161320;28;96843;-60
2022/09/26 08:37:12;;;;;;;;;45.33;37.00;;;;;19.04;57.67;97851.06;6179055;28;97015;-64
2022/09/26 08:40:50;;;;;;;;;44.40;36.40;;;;;19.00;57.62;97846.50;6175997;28;97926;-59
2022/09/26 08:44:31;;;;;;;;;44.20;37.20;;;;;18.88;57.90;97848.91;6181618;28;97389;-64
2022/09/26 08:48:03;;;;;;;;;40.00;33.25;;;;;18.83;58.09;97852.53;6173912;28;96087;-64
2022/09/26 08:51:24;;;;;;;;;38.75;33.00;;;;;18.78;58.29;97843.63;6188646;28;96327;-69
2022/09/26 08:54:36;;;;;;;;;43.00;36.00;;;;;18.75;58.44;97850.50;6187336;28;97069;-64
2022/09/26 08:57:46;;;;;;;;;44.00;36.00;;;;;18.70;59.11;97856.03;6187620;28;96441;-70
2022/09/26 09:00:57;;;;;;;;;45.00;36.00;;;;;18.67;59.17;97856.63;6186397;28;96691;-69
2022/09/26 09:04:07;;;;;;;;;46.00;37.00;;;;;18.67;59.23;97853.13;6187310;28;96321;-69
2022/09/26 09:07:20;;;;;;;;;45.50;38.00;;;;;18.66;59.44;97857.75;6188450;28;96328;-72
2022/09/26 09:10:40;;;;;;;;;47.40;38.00;;;;;18.68;59.59;97860.97;6186817;28;96476;-61
2022/09/26 09:14:36;;;;;;;;;43.50;36.00;;;;;18.69;60.16;97859.06;6170164;28;96246;-70
2022/09/26 09:18:12;;;;;;;;;39.60;34.20;;;;;18.72;60.25;97858.47;6186363;28;96320;-70
2022/09/26 09:21:41;;;;;;;;;47.00;38.00;;;;;18.71;60.35;97870.50;6185698;28;96362;-59
2022/09/26 09:25:02;;;;;;;;;42.00;35.00;;;;;18.68;60.19;97854.72;6182750;28;96799;-60
2022/09/26 09:28:16;;;;;;;;;43.60;36.00;;;;;18.67;59.91;97861.31;6175774;28;96512;-69
2022/09/26 09:31:25;;;;;;;;;41.40;33.60;;;;;18.68;60.00;97852.78;6199912;28;97077;-60
2022/09/26 09:34:49;;;;;;;;;43.00;34.00;;;;;18.73;60.02;97866.34;6182225;28;96593;-61
2022/09/26 09:38:27;;;;;;;;;38.20;33.00;;;;;18.77;60.01;97863.84;6185305;28;97985;-60
2022/09/26 09:41:47;;;;;;;;;43.60;35.00;;;;;18.79;59.78;97862.44;6170809;28;97095;-69
2022/09/26 09:44:58;;;;;;;;;44.00;35.50;;;;;18.81;59.83;97865.69;6186713;28;96599;-62
2022/09/26 09:48:04;;;;;;;;;40.60;33.20;;;;;18.83;59.76;97855.25;6187473;28;96595;-66
2022/09/26 09:51:19;;;;;;;;;41.60;34.80;;;;;18.88;59.99;97860.63;6189984;28;96623;-60
2022/09/26 09:54:38;;;;;;;;;43.60;35.00;;;;;18.89;59.72;97866.91;6169191;28;98297;-65
2022/09/26 09:58:02;;;;;;;;;45.40;36.00;;;;;18.93;59.53;97865.19;6173583;28;97133;-63
2022/09/26 10:01:17;;;;;;;;;44.80;35.80;;;;;19.00;60.22;97862.91;6185746;28;97228;-65
2022/09/26 10:04:34;;;;;;;;;44.60;35.20;;;;;19.03;60.55;97863.09;6186199;28;96691;-59
2022/09/26 10:07:39;;;;;;;;;43.33;36.67;;;;;19.11;60.05;97861.56;6186310;28;96533;-62
2022/09/26 10:11:21;;;;;;;;;43.00;35.60;;;;;19.26;60.28;97858.56;6172106;28;96216;-62
2022/09/26 10:14:38;;;;;;;;;42.80;34.80;;;;;19.36;59.58;97858.34;6187309;28;96411;-65
2022/09/26 10:18:05;;;;;;;;;41.60;34.00;;;;;19.42;59.31;97859.06;6170759;28;97000;-61
2022/09/26 10:21:38;;;;;;;;;39.00;33.00;;;;;19.41;58.80;97850.06;6176818;28;96514;-61
2022/09/26 10:24:42;;;;;;;;;35.20;30.60;;;;;19.45;58.21;97853.84;6173608;28;96381;-63
2022/09/26 10:27:52;;;;;;;;;37.00;32.00;;;;;19.54;58.01;97848.50;6175435;28;96528;-68
2022/09/26 10:31:02;;;;;;;;;35.00;32.75;;;;;19.65;58.82;97838.13;6175503;28;96635;-60
2022/09/26 10:34:23;;;;;;;;;36.20;32.00;;;;;19.78;58.47;97851.81;6176903;28;96539;-61
2022/09/26 10:37:30;;;;;;;;;39.75;32.00;;;;;19.89;58.50;97833.22;6185291;28;96719;-69
2022/09/26 10:40:49;;;;;;;;;38.80;31.40;;;;;19.98;58.13;97838.78;6185801;28;97784;-62
2022/09/26 10:43:58;;;;;;;;;37.00;32.00;;;;;20.05;57.99;97839.97;6185462;28;96330;-60
2022/09/26 10:47:24;;;;;;;;;33.60;30.00;;;;;20.12;57.91;97821.22;6186307;28;96541;-66
2022/09/26 10:50:50;;;;;;;;;29.00;27.00;;;;;20.19;56.33;97824.31;6186456;28;96921;-71
2022/09/26 10:54:03;;;;;;;;;22.00;21.60;;;;;20.20;55.70;97819.66;6172325;28;96407;-62
2022/09/26 10:57:17;;;;;;;;;25.80;23.60;;;;;20.27;55.66;97817.31;6185644;28;96331;-63
2022/09/26 11:00:35;;;;;;;;;28.60;24.60;;;;;20.32;55.61;97819.97;6185223;28;96963;-65
2022/09/26 11:03:44;;;;;;;;;25.40;23.40;;;;;20.39;54.99;97820.31;6185421;28;96475;-65
2022/09/26 11:06:58;;;;;;;;;26.00;23.40;;;;;20.44;54.20;97822.13;6185028;28;96336;-59
2022/09/26 11:10:24;;;;;;;;;28.80;24.60;;;;;20.56;54.23;97823.19;6189284;28;96616;-70
2022/09/26 11:13:46;;;;;;;;;29.25;26.00;;;;;20.64;54.79;97825.16;6189578;28;96412;-72
2022/09/26 11:16:54;;;;;;;;;29.00;26.00;;;;;20.79;54.06;97815.75;6161479;28;96659;-61
2022/09/26 11:20:02;;;;;;;;;27.00;24.00;;;;;20.97;54.36;97811.97;6164812;28;97883;-62
2022/09/26 11:23:19;;;;;;;;;26.80;25.20;;;;;21.61;53.24;97818.69;6183810;28;96316;-63
2022/09/26 11:26:34;;;;;;;;;28.25;26.25;;;;;22.30;51.67;97810.56;6178801;28;96241;-69
2022/09/26 11:29:47;;;;;;;;;26.00;25.00;;;;;22.65;49.59;97772.06;6187735;28;96579;-63
2022/09/26 11:32:59;;;;;;;;;25.00;23.00;;;;;23.23;47.69;97794.19;6202629;28;96417;-60
2022/09/26 11:36:50;;;;;;;;;25.00;21.80;;;;;23.61;47.46;97790.63;6189884;28;96432;-69
2022/09/26 11:40:12;;;;;;;;;21.40;20.00;;;;;24.23;46.42;97781.63;6188878;28;96473;-65
2022/09/26 11:43:37;;;;;;;;;21.20;19.60;;;;;24.68;44.17;97771.44;6189198;28;97042;-64
2022/09/26 11:46:58;;;;;;;;;19.40;19.00;;;;;24.90;43.11;97775.78;6188376;28;96988;-67
2022/09/26 11:50:39;;;;;;;;;19.00;17.60;;;;;24.98;43.33;97769.34;6188874;28;96569;-62
2022/09/26 11:54:12;;;;;;;;;22.00;20.00;;;;;24.75;43.23;97762.63;6173981;28;97102;-69
2022/09/26 11:57:30;;;;;;;;;22.60;21.60;;;;;24.98;43.58;97759.13;6188231;28;96656;-69
2022/09/26 12:00:49;;;;;;;;;19.00;19.00;;;;;25.76;42.33;97767.19;6188016;28;96729;-70
2022/09/26 12:04:11;;;;;;;;;17.60;16.60;;;;;26.22;39.62;97756.75;6190390;28;96431;-62
2022/09/26 12:07:22;;;;;;;;;17.00;16.00;;;;;26.79;38.74;97750.81;6190043;28;96558;-71
2022/09/26 12:10:35;;;;;;;;;17.60;17.00;;;;;27.26;39.33;97761.94;6189665;28;96429;-72
2022/09/26 12:13:51;;;;;;;;;19.00;15.50;;;;;27.41;38.62;97768.63;6189144;28;96427;-72
2022/09/26 12:17:01;;;;;;;;;12.60;12.00;;;;;27.06;37.31;97763.00;6190118;28;96120;-63
2022/09/26 12:20:20;;;;;;;;;13.00;12.00;;;;;26.62;39.02;97729.84;6189823;28;96374;-70
2022/09/26 12:23:32;;;;;;;;;11.80;11.80;;;;;26.61;38.55;97769.69;6190268;28;96304;-71
2022/09/26 12:26:45;;;;;;;;;12.00;10.60;;;;;27.02;38.62;97760.16;6189942;28;96446;-63
2022/09/26 12:29:58;;;;;;;;;11.00;11.00;;;;;27.67;37.37;97757.78;6174094;28;97593;-67
2022/09/26 12:33:33;;;;;;;;;11.00;10.00;;;;;27.81;36.08;97760.06;6189619;28;96596;-71
2022/09/26 12:36:54;;;;;;;;;12.40;11.00;;;;;27.96;35.27;97759.19;6184986;28;96538;-63
2022/09/26 12:40:17;;;;;;;;;10.00;9.00;;;;;28.28;36.39;97754.38;6175553;28;96441;-67
2022/09/26 12:43:59;;;;;;;;;10.00;9.00;;;;;28.45;34.71;97751.16;6185264;28;97111;-64
2022/09/26 12:47:16;;;;;;;;;10.00;9.00;;;;;27.98;35.93;97745.81;6187476;28;96376;-64
2022/09/26 12:50:30;;;;;;;;;11.00;10.40;;;;;27.49;36.57;97751.84;6185006;28;96613;-66
2022/09/26 12:54:14;;;;;;;;;9.00;8.25;;;;;26.90;36.68;97737.28;6188427;28;96374;-71
2022/09/26 12:57:32;;;;;;;;;9.00;8.00;;;;;26.75;38.27;97741.63;6185264;28;96340;-60
2022/09/26 13:00:45;;;;;;;;;10.00;9.00;;;;;26.32;37.70;97759.00;6186912;28;96828;-63
2022/09/26 13:04:17;;;;;;;;;9.40;9.40;;;;;26.02;39.04;97750.22;6174087;28;97541;-60
2022/09/26 13:07:40;;;;;;;;;11.00;10.60;;;;;25.97;39.44;97753.22;6189111;28;96504;-71
2022/09/26 13:10:57;;;;;;;;;13.25;11.50;;;;;26.27;39.47;97762.03;6187440;28;96272;-66
2022/09/26 13:14:30;;;;;;;;;15.00;13.00;;;;;26.55;39.56;97754.50;6188732;28;96373;-63
2022/09/26 13:17:39;;;;;;;;;11.40;10.00;;;;;26.82;38.50;97752.06;6188658;28;96407;-60
2022/09/26 13:20:44;;;;;;;;;9.67;9.00;;;;;26.92;37.49;97752.38;6188872;28;96328;-65
2022/09/26 13:23:53;;;;;;;;;9.40;9.40;;;;;27.26;37.21;97750.84;6186603;28;97269;-65
2022/09/26 13:27:05;;;;;;;;;9.00;8.00;;;;;27.51;37.16;97743.97;6189075;28;97445;-62
2022/09/26 13:30:18;;;;;;;;;8.00;7.00;;;;;27.78;35.49;97742.22;6188323;28;96307;-66
2022/09/26 13:33:31;;;;;;;;;8.00;8.00;;;;;27.78;35.04;97731.13;6187642;28;96691;-63
2022/09/26 13:36:37;;;;;;;;;10.00;10.00;;;;;27.64;34.96;97738.31;6188728;28;96659;-70
2022/09/26 13:39:48;;;;;;;;;10.00;9.00;;;;;27.69;34.54;97736.06;6183683;28;96877;-70
2022/09/26 13:43:05;;;;;;;;;11.00;10.00;;;;;27.61;34.55;97726.00;6187961;28;97555;-63
2022/09/26 13:46:22;;;;;;;;;8.00;8.00;;;;;27.87;34.54;97730.91;6183668;28;96553;-65
2022/09/26 13:49:49;;;;;;;;;8.00;8.00;;;;;27.91;34.21;97727.06;6182865;28;96781;-61
2022/09/26 13:53:06;;;;;;;;;7.40;7.40;;;;;28.03;34.58;97720.59;6181804;28;96584;-70
2022/09/26 13:56:30;;;;;;;;;9.00;8.20;;;;;28.14;33.94;97713.34;6182158;28;96702;-63
2022/09/26 13:59:50;;;;;;;;;9.40;9.00;;;;;28.14;33.30;97715.31;6188070;28;96647;-63
2022/09/26 14:03:30;;;;;;;;;9.00;8.60;;;;;27.81;33.24;97716.53;6187393;28;96259;-67
2022/09/26 14:06:35;;;;;;;;;8.60;8.00;;;;;27.48;33.80;97708.66;6176518;28;97516;-62
2022/09/26 14:09:51;;;;;;;;;10.60;9.60;;;;;27.23;34.48;97696.22;6187161;28;96420;-65
2022/09/26 14:13:07;;;;;;;;;9.00;8.20;;;;;27.15;35.15;97698.03;6187739;28;96590;-72
2022/09/26 14:16:35;;;;;;;;;9.00;9.00;;;;;27.18;36.01;97699.25;6186471;28;96999;-60
2022/09/26 14:19:43;;;;;;;;;10.20;9.20;;;;;26.97;34.94;97702.34;6185742;28;96624;-61
2022/09/26 14:22:52;;;;;;;;;10.00;9.00;;;;;26.93;35.27;97695.06;6185639;28;96564;-62
2022/09/26 14:26:05;;;;;;;;;10.25;9.25;;;;;26.70;34.88;97692.91;6187666;28;97360;-62
2022/09/26 14:29:30;;;;;;;;;8.40;8.00;;;;;26.49;35.58;97694.31;6189599;28;96789;-62
2022/09/26 14:32:38;;;;;;;;;9.00;9.00;;;;;26.20;35.98;97698.22;6198443;28;96355;-70
2022/09/26 14:35:42;;;;;;;;;9.60;9.00;;;;;25.77;37.38;97698.97;6184199;28;96552;-66
2022/09/26 14:38:49;;;;;;;;;11.40;11.00;;;;;25.41;37.88;97692.34;6189888;28;96251;-59
2022/09/26 14:41:54;;;;;;;;;10.00;10.00;;;;;24.97;38.75;97696.06;6190122;28;96598;-65
2022/09/26 14:45:00;;;;;;;;;13.00;11.00;;;;;24.61;39.74;97694.06;6190782;28;96854;-66
2022/09/26 14:48:08;;;;;;;;;11.80;10.40;;;;;24.29;40.37;97694.91;6174818;28;96864;-71
2022/09/26 14:51:30;;;;;;;;;10.00;9.75;;;;;24.03;41.32;97695.94;6176501;28;96567;-62
2022/09/26 14:54:40;;;;;;;;;9.60;8.00;;;;;23.77;42.18;97687.06;6187578;28;99254;-70
2022/09/26 14:57:47;;;;;;;;;11.00;10.00;;;;;23.47;42.41;97689.09;6189012;28;96289;-72
2022/09/26 15:00:51;;;;;;;;;11.50;10.75;;;;;23.26;42.95;97691.78;6190154;28;96528;-62